createdAt,value
2019-05-05T00:00:48.796Z,1006.06
2019-05-05T00:01:48.783Z,1006.06
2019-05-05T00:02:48.781Z,1006.07
2019-05-05T00:03:48.764Z,1006.02
2019-05-05T00:04:48.752Z,1006.12
2019-05-05T00:05:48.741Z,1006.07
2019-05-05T00:06:48.732Z,1006.08
2019-05-05T00:07:48.753Z,1006.10
2019-05-05T00:08:48.708Z,1006.10
2019-05-05T00:09:48.703Z,1006.09
2019-05-05T00:10:48.685Z,1006.15
2019-05-05T00:11:48.675Z,1006.13
2019-05-05T00:12:48.667Z,1006.13
2019-05-05T00:13:48.665Z,1006.12
2019-05-05T00:14:48.643Z,1006.18
2019-05-05T00:15:48.632Z,1006.20
2019-05-05T00:16:48.620Z,1006.19
2019-05-05T00:17:48.616Z,1006.22
2019-05-05T00:18:48.607Z,1006.26
2019-05-05T00:19:48.590Z,1006.21
2019-05-05T00:20:48.577Z,1006.26
2019-05-05T00:21:48.568Z,1006.25
2019-05-05T00:22:48.560Z,1006.23
2019-05-05T00:23:48.553Z,1006.23
2019-05-05T00:24:48.534Z,1006.25
2019-05-05T00:25:48.527Z,1006.26
2019-05-05T00:26:48.512Z,1006.25
2019-05-05T00:27:48.502Z,1006.30
2019-05-05T00:28:48.505Z,1006.27
2019-05-05T00:29:48.480Z,1006.27
2019-05-05T00:30:48.470Z,1006.25
2019-05-05T00:31:48.458Z,1006.25
2019-05-05T00:32:48.448Z,1006.28
2019-05-05T00:33:48.450Z,1006.26
2019-05-05T00:34:48.425Z,1006.34
2019-05-05T00:35:48.421Z,1006.31
2019-05-05T00:36:48.403Z,1006.31
2019-05-05T00:37:48.394Z,1006.35
2019-05-05T00:38:48.391Z,1006.37
2019-05-05T00:39:48.371Z,1006.35
2019-05-05T00:40:48.361Z,1006.35
2019-05-05T00:41:48.354Z,1006.33
2019-05-05T00:42:48.340Z,1006.38
2019-05-05T00:43:48.337Z,1006.36
2019-05-05T00:44:48.318Z,1006.31
2019-05-05T00:45:48.307Z,1006.32
2019-05-05T00:46:48.300Z,1006.32
2019-05-05T00:47:48.285Z,1006.29
2019-05-05T00:48:48.288Z,1006.35
2019-05-05T00:49:49.466Z,1006.38
2019-05-05T00:50:48.252Z,1006.42
2019-05-05T00:51:48.252Z,1006.37
2019-05-05T00:52:48.232Z,1006.38
2019-05-05T00:53:48.232Z,1006.37
2019-05-05T00:54:48.209Z,1006.41
2019-05-05T00:55:48.199Z,1006.41
2019-05-05T00:56:48.187Z,1006.38
2019-05-05T00:57:48.177Z,1006.40
2019-05-05T00:58:48.205Z,1006.43
2019-05-05T00:59:48.155Z,1006.38
2019-05-05T01:00:48.146Z,1006.40
2019-05-05T01:01:48.134Z,1006.44
2019-05-05T01:02:48.123Z,1006.45
2019-05-05T01:03:48.112Z,1006.43
2019-05-05T01:04:48.118Z,1006.42
2019-05-05T01:05:48.092Z,1006.45
2019-05-05T01:06:48.081Z,1006.47
2019-05-05T01:07:48.071Z,1006.45
2019-05-05T01:08:48.061Z,1006.45
2019-05-05T01:09:48.063Z,1006.48
2019-05-05T01:10:48.043Z,1006.47
2019-05-05T01:11:48.031Z,1006.53
2019-05-05T01:12:48.018Z,1006.47
2019-05-05T01:13:48.008Z,1006.51
2019-05-05T01:14:48.006Z,1006.51
2019-05-05T01:15:47.988Z,1006.51
2019-05-05T01:16:47.979Z,1006.52
2019-05-05T01:17:47.968Z,1006.52
2019-05-05T01:18:47.956Z,1006.55
2019-05-05T01:20:00.252Z,1006.55
2019-05-05T01:20:48.934Z,1006.54
2019-05-05T01:21:47.925Z,1006.56
2019-05-05T01:22:47.917Z,1006.58
2019-05-05T01:23:47.906Z,1006.57
2019-05-05T01:24:47.932Z,1006.60
2019-05-05T01:25:48.768Z,1006.56
2019-05-05T01:26:47.874Z,1006.58
2019-05-05T01:27:47.862Z,1006.60
2019-05-05T01:28:47.855Z,1006.61
2019-05-05T01:29:47.845Z,1006.63
2019-05-05T01:30:47.843Z,1006.64
2019-05-05T01:31:47.822Z,1006.69
2019-05-05T01:32:47.813Z,1006.70
2019-05-05T01:33:47.801Z,1006.66
2019-05-05T01:34:47.794Z,1006.69
2019-05-05T01:35:47.787Z,1006.71
2019-05-05T01:36:47.767Z,1006.73
2019-05-05T01:37:47.757Z,1006.69
2019-05-05T01:38:47.748Z,1006.77
2019-05-05T01:39:47.739Z,1006.77
2019-05-05T01:40:47.765Z,1006.79
2019-05-05T01:41:47.716Z,1006.80
2019-05-05T01:42:47.708Z,1006.86
2019-05-05T01:43:47.696Z,1006.85
2019-05-05T01:44:47.688Z,1006.86
2019-05-05T01:45:47.673Z,1006.92
2019-05-05T01:46:47.675Z,1006.94
2019-05-05T01:47:47.650Z,1006.97
2019-05-05T01:48:47.643Z,1006.96
2019-05-05T01:49:47.630Z,1006.96
2019-05-05T01:50:47.626Z,1007.01
2019-05-05T01:51:47.618Z,1007.05
2019-05-05T01:52:47.599Z,1007.10
2019-05-05T01:53:47.590Z,1007.09
2019-05-05T01:54:47.577Z,1007.12
2019-05-05T01:55:47.567Z,1007.14
2019-05-05T01:56:47.566Z,1007.18
2019-05-05T01:57:47.546Z,1007.24
2019-05-05T01:58:47.535Z,1007.23
2019-05-05T01:59:47.526Z,1007.24
2019-05-05T02:00:47.516Z,1007.26
2019-05-05T02:01:47.514Z,1007.25
2019-05-05T02:02:47.495Z,1007.25
2019-05-05T02:03:47.483Z,1007.26
2019-05-05T02:04:47.475Z,1007.24
2019-05-05T02:05:47.464Z,1007.26
2019-05-05T02:06:47.462Z,1007.28
2019-05-05T02:07:47.441Z,1007.26
2019-05-05T02:08:47.431Z,1007.29
2019-05-05T02:09:47.420Z,1007.32
2019-05-05T02:10:47.409Z,1007.33
2019-05-05T02:11:47.422Z,1007.36
2019-05-05T02:12:47.389Z,1007.42
2019-05-05T02:13:47.377Z,1007.36
2019-05-05T02:14:47.368Z,1007.39
2019-05-05T02:15:47.361Z,1007.39
2019-05-05T02:16:47.351Z,1007.40
2019-05-05T02:17:47.343Z,1007.42
2019-05-05T02:18:47.325Z,1007.44
2019-05-05T02:19:47.314Z,1007.44
2019-05-05T02:20:47.303Z,1007.41
2019-05-05T02:21:47.296Z,1007.46
2019-05-05T02:22:47.291Z,1007.41
2019-05-05T02:23:47.271Z,1007.41
2019-05-05T02:24:47.260Z,1007.44
2019-05-05T02:25:47.251Z,1007.42
2019-05-05T02:26:47.242Z,1007.37
2019-05-05T02:27:47.237Z,1007.46
2019-05-05T02:28:47.218Z,1007.42
2019-05-05T02:29:47.209Z,1007.40
2019-05-05T02:30:47.204Z,1007.46
2019-05-05T02:31:47.206Z,1007.46
2019-05-05T02:32:47.185Z,1007.43
2019-05-05T02:33:47.169Z,1007.47
2019-05-05T02:34:47.166Z,1007.46
2019-05-05T02:35:47.148Z,1007.48
2019-05-05T02:36:47.136Z,1007.43
2019-05-05T02:37:47.145Z,1007.50
2019-05-05T02:38:47.125Z,1007.55
2019-05-05T02:39:58.056Z,1007.53
2019-05-05T02:40:48.092Z,1007.54
2019-05-05T02:41:47.084Z,1007.56
2019-05-05T02:42:47.083Z,1007.60
2019-05-05T02:43:47.066Z,1007.56
2019-05-05T02:44:47.053Z,1007.60
2019-05-05T02:45:47.042Z,1007.61
2019-05-05T02:46:47.030Z,1007.67
2019-05-05T02:47:47.035Z,1007.69
2019-05-05T02:48:47.011Z,1007.60
2019-05-05T02:49:47.004Z,1007.65
2019-05-05T02:50:55.680Z,1007.67
2019-05-05T02:51:47.980Z,1007.68
2019-05-05T02:52:46.999Z,1007.71
2019-05-05T02:53:46.956Z,1007.74
2019-05-05T02:54:46.946Z,1007.73
2019-05-05T02:55:46.936Z,1007.75
2019-05-05T02:56:46.927Z,1007.82
2019-05-05T02:57:46.918Z,1007.78
2019-05-05T02:58:46.913Z,1007.82
2019-05-05T02:59:46.894Z,1007.84
2019-05-05T03:00:46.884Z,1007.87
2019-05-05T03:01:46.875Z,1007.87
2019-05-05T03:02:46.863Z,1007.85
2019-05-05T03:03:46.866Z,1007.88
2019-05-05T03:04:46.843Z,1007.90
2019-05-05T03:05:46.834Z,1007.95
2019-05-05T03:06:46.823Z,1007.95
2019-05-05T03:07:46.811Z,1007.91
2019-05-05T03:08:46.812Z,1007.92
2019-05-05T03:09:46.791Z,1007.92
2019-05-05T03:10:46.781Z,1007.93
2019-05-05T03:11:46.773Z,1007.92
2019-05-05T03:12:46.761Z,1007.96
2019-05-05T03:13:46.760Z,1007.97
2019-05-05T03:14:46.742Z,1007.99
2019-05-05T03:15:46.732Z,1007.97
2019-05-05T03:16:46.719Z,1008.01
2019-05-05T03:17:46.708Z,1007.97
2019-05-05T03:18:46.709Z,1008.03
2019-05-05T03:19:46.692Z,1008.04
2019-05-05T03:20:46.677Z,1008.05
2019-05-05T03:21:46.668Z,1008.11
2019-05-05T03:22:46.657Z,1008.08
2019-05-05T03:23:46.655Z,1008.11
2019-05-05T03:24:46.636Z,1008.12
2019-05-05T03:25:46.627Z,1008.18
2019-05-05T03:26:46.615Z,1008.18
2019-05-05T03:27:46.605Z,1008.20
2019-05-05T03:28:46.604Z,1008.23
2019-05-05T03:29:46.585Z,1008.22
2019-05-05T03:30:46.575Z,1008.21
2019-05-05T03:31:46.564Z,1008.24
2019-05-05T03:32:46.556Z,1008.26
2019-05-05T03:33:46.560Z,1008.21
2019-05-05T03:34:46.540Z,1008.28
2019-05-05T03:35:46.526Z,1008.26
2019-05-05T03:36:46.511Z,1008.29
2019-05-05T03:37:46.505Z,1008.30
2019-05-05T03:38:46.543Z,1008.31
2019-05-05T03:39:46.482Z,1008.30
2019-05-05T03:40:46.470Z,1008.36
2019-05-05T03:41:46.461Z,1008.29
2019-05-05T03:42:46.452Z,1008.32
2019-05-05T03:43:46.440Z,1008.29
2019-05-05T03:44:46.438Z,1008.34
2019-05-05T03:45:46.418Z,1008.36
2019-05-05T03:46:46.409Z,1008.34
2019-05-05T03:47:46.398Z,1008.34
2019-05-05T03:48:46.387Z,1008.37
2019-05-05T03:49:46.394Z,1008.30
2019-05-05T03:50:46.367Z,1008.34
2019-05-05T03:51:46.358Z,1008.34
2019-05-05T03:52:46.346Z,1008.43
2019-05-05T03:53:46.336Z,1008.46
2019-05-05T03:54:46.334Z,1008.47
2019-05-05T03:55:46.316Z,1008.43
2019-05-05T03:56:46.307Z,1008.52
2019-05-05T03:57:46.292Z,1008.48
2019-05-05T03:58:46.283Z,1008.52
2019-05-05T03:59:46.279Z,1008.55
2019-05-05T04:00:46.261Z,1008.56
2019-05-05T04:01:46.252Z,1008.65
2019-05-05T04:02:46.238Z,1008.59
2019-05-05T04:03:46.229Z,1008.55
2019-05-05T04:04:46.228Z,1008.64
2019-05-05T04:05:46.205Z,1008.63
2019-05-05T04:06:46.199Z,1008.63
2019-05-05T04:07:46.184Z,1008.60
2019-05-05T04:08:46.174Z,1008.59
2019-05-05T04:09:46.180Z,1008.66
2019-05-05T04:10:46.157Z,1008.64
2019-05-05T04:11:46.143Z,1008.61
2019-05-05T04:12:46.134Z,1008.67
2019-05-05T04:13:46.121Z,1008.70
2019-05-05T04:14:46.127Z,1008.72
2019-05-05T04:15:46.102Z,1008.69
2019-05-05T04:16:46.091Z,1008.67
2019-05-05T04:17:46.079Z,1008.71
2019-05-05T04:18:46.071Z,1008.72
2019-05-05T04:19:46.069Z,1008.72
2019-05-05T04:20:46.049Z,1008.81
2019-05-05T04:21:46.037Z,1008.73
2019-05-05T04:22:46.026Z,1008.77
2019-05-05T04:23:46.017Z,1008.76
2019-05-05T04:24:46.014Z,1008.74
2019-05-05T04:25:45.997Z,1008.77
2019-05-05T04:26:45.984Z,1008.76
2019-05-05T04:27:45.973Z,1008.72
2019-05-05T04:28:45.964Z,1008.74
2019-05-05T04:29:45.965Z,1008.83
2019-05-05T04:30:45.944Z,1008.79
2019-05-05T04:31:45.933Z,1008.82
2019-05-05T04:32:45.926Z,1008.84
2019-05-05T04:33:45.911Z,1008.83
2019-05-05T04:34:45.912Z,1008.89
2019-05-05T04:35:45.891Z,1008.88
2019-05-05T04:36:45.879Z,1008.91
2019-05-05T04:37:45.870Z,1008.93
2019-05-05T04:38:45.859Z,1008.94
2019-05-05T04:39:45.898Z,1008.99
2019-05-05T04:40:45.837Z,1008.94
2019-05-05T04:41:45.826Z,1009.03
2019-05-05T04:42:45.816Z,1009.08
2019-05-05T04:43:45.808Z,1009.17
2019-05-05T04:44:45.795Z,1009.19
2019-05-05T04:45:45.793Z,1009.15
2019-05-05T04:46:45.773Z,1009.24
2019-05-05T04:47:45.765Z,1009.23
2019-05-05T04:48:45.754Z,1009.20
2019-05-05T04:49:45.741Z,1009.29
2019-05-05T04:50:45.739Z,1009.27
2019-05-05T04:51:49.964Z,1009.28
2019-05-05T04:52:45.708Z,1009.30
2019-05-05T04:53:45.701Z,1009.35
2019-05-05T04:54:45.688Z,1009.37
2019-05-05T04:55:45.685Z,1009.29
2019-05-05T04:56:45.665Z,1009.34
2019-05-05T04:57:45.655Z,1009.35
2019-05-05T04:58:45.644Z,1009.35
2019-05-05T04:59:45.633Z,1009.42
2019-05-05T05:00:45.632Z,1009.41
2019-05-05T05:01:45.613Z,1009.36
2019-05-05T05:02:45.601Z,1009.41
2019-05-05T05:03:45.590Z,1009.37
2019-05-05T05:04:45.580Z,1009.42
2019-05-05T05:05:45.578Z,1009.44
2019-05-05T05:06:45.564Z,1009.43
2019-05-05T05:07:45.548Z,1009.45
2019-05-05T05:08:45.538Z,1009.47
2019-05-05T05:09:45.528Z,1009.41
2019-05-05T05:10:45.530Z,1009.50
2019-05-05T05:11:45.506Z,1009.50
2019-05-05T05:12:45.496Z,1009.56
2019-05-05T05:13:45.486Z,1009.51
2019-05-05T05:14:45.473Z,1009.58
2019-05-05T05:15:45.503Z,1009.52
2019-05-05T05:16:45.454Z,1009.51
2019-05-05T05:17:45.443Z,1009.58
2019-05-05T05:18:45.437Z,1009.59
2019-05-05T05:19:45.422Z,1009.65
2019-05-05T05:20:45.412Z,1009.66
2019-05-05T05:21:58.255Z,1009.57
2019-05-05T05:22:46.397Z,1009.58
2019-05-05T05:23:45.383Z,1009.61
2019-05-05T05:24:45.373Z,1009.61
2019-05-05T05:25:45.361Z,1009.64
2019-05-05T05:26:45.360Z,1009.63
2019-05-05T05:27:45.339Z,1009.63
2019-05-05T05:28:45.333Z,1009.67
2019-05-05T05:29:45.319Z,1009.71
2019-05-05T05:30:45.310Z,1009.65
2019-05-05T05:31:45.308Z,1009.69
2019-05-05T05:32:45.295Z,1009.70
2019-05-05T05:33:45.281Z,1009.67
2019-05-05T05:34:45.271Z,1009.72
2019-05-05T05:35:45.262Z,1009.74
2019-05-05T05:36:45.264Z,1009.75
2019-05-05T05:37:45.240Z,1009.73
2019-05-05T05:38:45.229Z,1009.72
2019-05-05T05:39:45.221Z,1009.73
2019-05-05T05:40:45.209Z,1009.77
2019-05-05T05:41:45.211Z,1009.77
2019-05-05T05:42:45.193Z,1009.79
2019-05-05T05:43:45.183Z,1009.76
2019-05-05T05:44:45.170Z,1009.79
2019-05-05T05:45:45.161Z,1009.79
2019-05-05T05:46:45.160Z,1009.81
2019-05-05T05:47:45.141Z,1009.84
2019-05-05T05:48:45.794Z,1009.90
2019-05-05T05:49:45.123Z,1009.86
2019-05-05T05:50:45.112Z,1009.88
2019-05-05T05:51:45.136Z,1009.88
2019-05-05T05:52:45.092Z,1009.93
2019-05-05T05:53:45.082Z,1009.89
2019-05-05T05:54:45.072Z,1009.88
2019-05-05T05:55:45.065Z,1009.96
2019-05-05T05:56:45.055Z,1009.97
2019-05-05T05:57:45.055Z,1010.00
2019-05-05T05:58:45.036Z,1010.00
2019-05-05T05:59:45.027Z,1010.03
2019-05-05T06:00:45.024Z,1010.02
2019-05-05T06:01:45.010Z,1010.02
2019-05-05T06:02:45.006Z,1010.03
2019-05-05T06:03:44.992Z,1010.07
2019-05-05T06:04:44.980Z,1010.10
2019-05-05T06:05:44.981Z,1010.15
2019-05-05T06:06:44.961Z,1010.16
2019-05-05T06:07:44.958Z,1010.16
2019-05-05T06:08:44.940Z,1010.16
2019-05-05T06:09:44.933Z,1010.16
2019-05-05T06:10:44.922Z,1010.16
2019-05-05T06:11:44.912Z,1010.24
2019-05-05T06:12:45.105Z,1010.23
2019-05-05T06:13:47.477Z,1010.21
2019-05-05T06:14:44.885Z,1010.27
2019-05-05T06:15:44.874Z,1010.28
2019-05-05T06:16:44.863Z,1010.38
2019-05-05T06:17:44.862Z,1010.35
2019-05-05T06:18:44.850Z,1010.39
2019-05-05T06:19:44.835Z,1010.38
2019-05-05T06:20:44.826Z,1010.37
2019-05-05T06:21:44.815Z,1010.39
2019-05-05T06:22:44.817Z,1010.38
2019-05-05T06:23:44.799Z,1010.38
2019-05-05T06:24:44.788Z,1010.41
2019-05-05T06:25:44.974Z,1010.39
2019-05-05T06:26:44.773Z,1010.42
2019-05-05T06:27:44.769Z,1010.42
2019-05-05T06:28:44.916Z,1010.46
2019-05-05T06:29:44.743Z,1010.45
2019-05-05T06:30:44.733Z,1010.45
2019-05-05T06:31:44.905Z,1010.42
2019-05-05T06:32:45.726Z,1010.44
2019-05-05T06:33:44.703Z,1010.44
2019-05-05T06:34:44.694Z,1010.44
2019-05-05T06:35:44.684Z,1010.47
2019-05-05T06:36:44.675Z,1010.43
2019-05-05T06:37:46.692Z,1010.37
2019-05-05T06:38:44.656Z,1010.40
2019-05-05T06:39:44.647Z,1010.39
2019-05-05T06:40:44.637Z,1010.44
2019-05-05T06:41:44.629Z,1010.48
2019-05-05T06:42:44.618Z,1010.48
2019-05-05T06:43:44.620Z,1010.49
2019-05-05T06:44:44.602Z,1010.51
2019-05-05T06:45:44.593Z,1010.55
2019-05-05T06:46:44.665Z,1010.56
2019-05-05T06:47:44.611Z,1010.59
2019-05-05T06:48:44.572Z,1010.59
2019-05-05T06:49:44.552Z,1010.63
2019-05-05T06:50:44.543Z,1010.65
2019-05-05T06:51:44.533Z,1010.61
2019-05-05T06:52:47.052Z,1010.59
2019-05-05T06:53:44.524Z,1010.62
2019-05-05T06:54:44.503Z,1010.63
2019-05-05T06:55:44.547Z,1010.63
2019-05-05T06:56:44.574Z,1010.64
2019-05-05T06:57:44.530Z,1010.62
2019-05-05T06:58:44.953Z,1010.63
2019-05-05T06:59:44.454Z,1010.58
2019-05-05T07:00:44.443Z,1010.62
2019-05-05T07:01:44.435Z,1010.61
2019-05-05T07:02:44.561Z,1010.62
2019-05-05T07:03:44.425Z,1010.56
2019-05-05T07:04:44.684Z,1010.59
2019-05-05T07:05:44.394Z,1010.47
2019-05-05T07:06:53.848Z,1010.44
2019-05-05T07:07:45.374Z,1010.47
2019-05-05T07:08:44.373Z,1010.44
2019-05-05T07:09:44.465Z,1010.44
2019-05-05T07:10:44.574Z,1010.44
2019-05-05T07:11:44.332Z,1010.46
2019-05-05T07:12:44.321Z,1010.43
2019-05-05T07:13:44.467Z,1010.43
2019-05-05T07:14:44.671Z,1010.48
2019-05-05T07:15:44.293Z,1010.43
2019-05-05T07:16:44.280Z,1010.39
2019-05-05T07:17:44.391Z,1010.45
2019-05-05T07:18:44.706Z,1010.47
2019-05-05T07:19:44.984Z,1010.45
2019-05-05T07:20:44.239Z,1010.48
2019-05-05T07:21:44.228Z,1010.42
2019-05-05T07:22:58.439Z,1010.43
2019-05-05T07:23:45.216Z,1010.38
2019-05-05T07:24:44.198Z,1010.46
2019-05-05T07:25:45.971Z,1010.46
2019-05-05T07:26:44.742Z,1010.45
2019-05-05T07:27:44.391Z,1010.42
2019-05-05T07:28:44.849Z,1010.38
2019-05-05T07:29:44.146Z,1010.47
2019-05-05T07:30:44.352Z,1010.47
2019-05-05T07:31:44.122Z,1010.43
2019-05-05T07:32:44.360Z,1010.45
2019-05-05T07:33:44.111Z,1010.42
2019-05-05T07:34:44.106Z,1010.42
2019-05-05T07:35:55.500Z,1010.41
2019-05-05T07:36:45.071Z,1010.40
2019-05-05T07:37:44.059Z,1010.38
2019-05-05T07:38:44.322Z,1010.39
2019-05-05T07:39:44.636Z,1010.34
2019-05-05T07:40:44.048Z,1010.43
2019-05-05T07:41:44.790Z,1010.41
2019-05-05T07:42:44.154Z,1010.38
2019-05-05T07:43:43.996Z,1010.35
2019-05-05T07:44:44.174Z,1010.37
2019-05-05T07:45:44.864Z,1010.38
2019-05-05T07:46:44.117Z,1010.36
2019-05-05T07:47:47.185Z,1010.32
2019-05-05T07:48:44.305Z,1010.36
2019-05-05T07:49:44.197Z,1010.38
2019-05-05T07:50:58.166Z,1010.37
2019-05-05T07:51:44.935Z,1010.33
2019-05-05T07:52:43.971Z,1010.39
2019-05-05T07:53:44.397Z,1010.41
2019-05-05T07:54:43.885Z,1010.39
2019-05-05T07:55:43.868Z,1010.37
2019-05-05T07:56:44.498Z,1010.37
2019-05-05T07:57:43.844Z,1010.38
2019-05-05T07:58:44.035Z,1010.38
2019-05-05T07:59:44.998Z,1010.35
2019-05-05T08:00:43.843Z,1010.33
2019-05-05T08:01:46.508Z,1010.30
2019-05-05T08:02:44.010Z,1010.31
2019-05-05T08:03:44.550Z,1010.30
2019-05-05T08:04:43.879Z,1010.35
2019-05-05T08:05:44.303Z,1010.29
2019-05-05T08:06:44.541Z,1010.29
2019-05-05T08:07:44.653Z,1010.31
2019-05-05T08:08:44.457Z,1010.38
2019-05-05T08:09:44.493Z,1010.39
2019-05-05T08:10:43.919Z,1010.39
2019-05-05T08:11:43.723Z,1010.40
2019-05-05T08:12:43.811Z,1010.41
2019-05-05T08:13:44.291Z,1010.42
2019-05-05T08:14:44.401Z,1010.38
2019-05-05T08:15:56.308Z,1010.32
2019-05-05T08:16:44.639Z,1010.30
2019-05-05T08:17:44.765Z,1010.34
2019-05-05T08:18:43.890Z,1010.35
2019-05-05T08:19:43.980Z,1010.33
2019-05-05T08:20:44.349Z,1010.38
2019-05-05T08:21:43.817Z,1010.37
2019-05-05T08:22:44.351Z,1010.39
2019-05-05T08:23:44.743Z,1010.41
2019-05-05T08:24:44.027Z,1010.35
2019-05-05T08:25:45.373Z,1010.40
2019-05-05T08:26:44.218Z,1010.37
2019-05-05T08:27:44.673Z,1010.35
2019-05-05T08:28:43.534Z,1010.41
2019-05-05T08:29:43.866Z,1010.39
2019-05-05T08:30:44.162Z,1010.39
2019-05-05T08:31:44.287Z,1010.46
2019-05-05T08:32:43.711Z,1010.43
2019-05-05T08:33:44.194Z,1010.48
2019-05-05T08:34:56.621Z,1010.45
2019-05-05T08:35:44.964Z,1010.48
2019-05-05T08:36:44.645Z,1010.49
2019-05-05T08:37:43.639Z,1010.48
2019-05-05T08:38:44.132Z,1010.52
2019-05-05T08:39:44.700Z,1010.53
2019-05-05T08:40:43.994Z,1010.45
2019-05-05T08:41:45.401Z,1010.47
2019-05-05T08:42:44.552Z,1010.51
2019-05-05T08:43:44.067Z,1010.46
2019-05-05T08:44:44.719Z,1010.42
2019-05-05T08:45:44.401Z,1010.44
2019-05-05T08:46:44.606Z,1010.41
2019-05-05T08:47:43.636Z,1010.44
2019-05-05T08:48:44.706Z,1010.44
2019-05-05T08:49:44.262Z,1010.49
2019-05-05T08:50:43.905Z,1010.51
2019-05-05T08:51:44.306Z,1010.48
2019-05-05T08:52:44.455Z,1010.51
2019-05-05T08:53:47.878Z,1010.57
2019-05-05T08:54:44.762Z,1010.57
2019-05-05T08:55:44.330Z,1010.54
2019-05-05T08:56:44.732Z,1010.52
2019-05-05T08:57:44.689Z,1010.46
2019-05-05T08:58:43.784Z,1010.44
2019-05-05T08:59:43.967Z,1010.43
2019-05-05T09:00:44.369Z,1010.46
2019-05-05T09:01:44.893Z,1010.47
2019-05-05T09:02:43.767Z,1010.46
2019-05-05T09:03:44.320Z,1010.37
2019-05-05T09:04:44.708Z,1010.52
2019-05-05T09:05:43.860Z,1010.56
2019-05-05T09:06:43.771Z,1010.53
2019-05-05T09:07:44.157Z,1010.53
2019-05-05T09:08:44.177Z,1010.62
2019-05-05T09:09:44.173Z,1010.61
2019-05-05T09:10:44.775Z,1010.51
2019-05-05T09:11:43.817Z,1010.51
2019-05-05T09:12:43.681Z,1010.53
2019-05-05T09:13:44.705Z,1010.51
2019-05-05T09:14:44.915Z,1010.47
2019-05-05T09:15:44.298Z,1010.48
2019-05-05T09:16:44.778Z,1010.48
2019-05-05T09:17:44.014Z,1010.43
2019-05-05T09:18:44.220Z,1010.44
2019-05-05T09:19:44.896Z,1010.46
2019-05-05T09:20:44.579Z,1010.46
2019-05-05T09:21:44.741Z,1010.50
2019-05-05T09:22:44.589Z,1010.52
2019-05-05T09:23:58.169Z,1010.51
2019-05-05T09:24:44.558Z,1010.52
2019-05-05T09:25:44.640Z,1010.50
2019-05-05T09:26:43.756Z,1010.47
2019-05-05T09:27:44.260Z,1010.59
2019-05-05T09:28:44.573Z,1010.59
2019-05-05T09:29:43.932Z,1010.56
2019-05-05T09:30:44.373Z,1010.55
2019-05-05T09:31:44.941Z,1010.61
2019-05-05T09:32:43.889Z,1010.55
2019-05-05T09:33:44.243Z,1010.53
2019-05-05T09:34:43.588Z,1010.58
2019-05-05T09:35:43.711Z,1010.61
2019-05-05T09:36:43.967Z,1010.56
2019-05-05T09:37:44.343Z,1010.61
2019-05-05T09:38:44.585Z,1010.59
2019-05-05T09:39:43.663Z,1010.62
2019-05-05T09:40:43.983Z,1010.63
2019-05-05T09:41:44.587Z,1010.59
2019-05-05T09:42:44.279Z,1010.57
2019-05-05T09:43:44.567Z,1010.62
2019-05-05T09:44:43.813Z,1010.64
2019-05-05T09:45:44.169Z,1010.64
2019-05-05T09:46:44.515Z,1010.61
2019-05-05T09:47:44.865Z,1010.65
2019-05-05T09:48:44.010Z,1010.60
2019-05-05T09:49:44.602Z,1010.56
2019-05-05T09:50:43.660Z,1010.58
2019-05-05T09:51:43.981Z,1010.58
2019-05-05T09:52:44.332Z,1010.56
2019-05-05T09:53:44.624Z,1010.62
2019-05-05T09:54:43.876Z,1010.57
2019-05-05T09:55:44.341Z,1010.52
2019-05-05T09:56:44.429Z,1010.58
2019-05-05T09:57:43.819Z,1010.63
2019-05-05T09:58:44.038Z,1010.61
2019-05-05T09:59:44.101Z,1010.59
2019-05-05T10:00:44.165Z,1010.50
2019-05-05T10:01:44.486Z,1010.47
2019-05-05T10:02:44.161Z,1010.56
2019-05-05T10:03:44.230Z,1010.55
2019-05-05T10:04:44.105Z,1010.56
2019-05-05T10:05:42.468Z,1010.58
2019-05-05T10:06:45.727Z,1010.54
2019-05-05T10:07:44.034Z,1010.54
2019-05-05T10:08:44.499Z,1010.62
2019-05-05T10:09:43.770Z,1010.62
2019-05-05T10:10:44.291Z,1010.61
2019-05-05T10:11:44.813Z,1010.65
2019-05-05T10:12:44.373Z,1010.62
2019-05-05T10:13:44.261Z,1010.64
2019-05-05T10:14:44.746Z,1010.66
2019-05-05T10:15:44.309Z,1010.63
2019-05-05T10:16:42.348Z,1010.66
2019-05-05T10:17:42.344Z,1010.60
2019-05-05T10:18:42.327Z,1010.58
2019-05-05T10:19:44.022Z,1010.63
2019-05-05T10:20:42.308Z,1010.61
2019-05-05T10:21:44.205Z,1010.60
2019-05-05T10:22:43.812Z,1010.55
2019-05-05T10:23:43.598Z,1010.51
2019-05-05T10:24:44.230Z,1010.54
2019-05-05T10:25:44.538Z,1010.45
2019-05-05T10:26:43.797Z,1010.53
2019-05-05T10:27:47.000Z,1010.56
2019-05-05T10:28:44.456Z,1010.57
2019-05-05T10:29:44.100Z,1010.62
2019-05-05T10:30:42.200Z,1010.60
2019-05-05T10:31:43.701Z,1010.60
2019-05-05T10:32:43.776Z,1010.61
2019-05-05T10:33:42.176Z,1010.61
2019-05-05T10:34:43.919Z,1010.62
2019-05-05T10:35:43.745Z,1010.60
2019-05-05T10:36:44.169Z,1010.57
2019-05-05T10:37:43.891Z,1010.57
2019-05-05T10:38:42.110Z,1010.65
2019-05-05T10:39:43.896Z,1010.66
2019-05-05T10:40:44.427Z,1010.63
2019-05-05T10:41:44.058Z,1010.68
2019-05-05T10:42:44.193Z,1010.67
2019-05-05T10:43:43.723Z,1010.67
2019-05-05T10:44:42.047Z,1010.68
2019-05-05T10:45:43.911Z,1010.65
2019-05-05T10:46:42.027Z,1010.63
2019-05-05T10:47:43.989Z,1010.67
2019-05-05T10:48:42.013Z,1010.62
2019-05-05T10:49:43.992Z,1010.65
2019-05-05T10:50:44.279Z,1010.66
2019-05-05T10:51:43.835Z,1010.62
2019-05-05T10:52:44.157Z,1010.60
2019-05-05T10:53:43.830Z,1010.57
2019-05-05T10:54:44.838Z,1010.56
2019-05-05T10:55:41.932Z,1010.58
2019-05-05T10:56:41.924Z,1010.60
2019-05-05T10:57:43.607Z,1010.62
2019-05-05T10:58:43.996Z,1010.59
2019-05-05T10:59:43.530Z,1010.53
2019-05-05T11:00:44.120Z,1010.59
2019-05-05T11:01:41.875Z,1010.62
2019-05-05T11:02:41.855Z,1010.57
2019-05-05T11:03:41.858Z,1010.55
2019-05-05T11:04:44.018Z,1010.57
2019-05-05T11:05:41.825Z,1010.57
2019-05-05T11:06:43.699Z,1010.57
2019-05-05T11:07:41.802Z,1010.56
2019-05-05T11:08:41.802Z,1010.64
2019-05-05T11:09:41.783Z,1010.59
2019-05-05T11:10:41.770Z,1010.58
2019-05-05T11:11:43.755Z,1010.56
2019-05-05T11:12:41.750Z,1010.58
2019-05-05T11:13:45.013Z,1010.56
2019-05-05T11:14:41.727Z,1010.56
2019-05-05T11:15:43.982Z,1010.52
2019-05-05T11:16:43.750Z,1010.61
2019-05-05T11:17:43.807Z,1010.56
2019-05-05T11:18:41.694Z,1010.52
2019-05-05T11:19:41.673Z,1010.56
2019-05-05T11:20:41.664Z,1010.51
2019-05-05T11:21:43.576Z,1010.52
2019-05-05T11:22:43.711Z,1010.52
2019-05-05T11:23:41.636Z,1010.54
2019-05-05T11:24:55.135Z,1010.60
2019-05-05T11:25:44.219Z,1010.61
2019-05-05T11:26:41.596Z,1010.53
2019-05-05T11:27:43.852Z,1010.52
2019-05-05T11:28:41.584Z,1010.56
2019-05-05T11:29:43.689Z,1010.58
2019-05-05T11:30:41.565Z,1010.64
2019-05-05T11:31:41.541Z,1010.67
2019-05-05T11:32:41.532Z,1010.68
2019-05-05T11:33:43.589Z,1010.67
2019-05-05T11:34:41.509Z,1010.61
2019-05-05T11:35:41.497Z,1010.57
2019-05-05T11:36:41.487Z,1010.54
2019-05-05T11:37:43.731Z,1010.47
2019-05-05T11:38:41.892Z,1010.47
2019-05-05T11:39:41.455Z,1010.47
2019-05-05T11:40:41.442Z,1010.46
2019-05-05T11:41:41.431Z,1010.49
2019-05-05T11:42:41.420Z,1010.52
2019-05-05T11:43:41.586Z,1010.49
2019-05-05T11:44:41.400Z,1010.49
2019-05-05T11:45:41.387Z,1010.54
2019-05-05T11:46:41.376Z,1010.62
2019-05-05T11:47:41.365Z,1010.61
2019-05-05T11:48:41.360Z,1010.64
2019-05-05T11:49:41.353Z,1010.53
2019-05-05T11:50:43.485Z,1010.53
2019-05-05T11:51:43.598Z,1010.58
2019-05-05T11:52:41.309Z,1010.56
2019-05-05T11:53:41.299Z,1010.58
2019-05-05T11:54:41.297Z,1010.61
2019-05-05T11:55:41.276Z,1010.61
2019-05-05T11:56:41.265Z,1010.61
2019-05-05T11:57:41.254Z,1010.59
2019-05-05T11:58:41.244Z,1010.61
2019-05-05T11:59:41.242Z,1010.61
2019-05-05T12:00:41.223Z,1010.64
2019-05-05T12:01:41.210Z,1010.63
2019-05-05T12:02:41.198Z,1010.62
2019-05-05T12:03:41.188Z,1010.64
2019-05-05T12:04:41.186Z,1010.66
2019-05-05T12:05:41.167Z,1010.64